createdAt,value
2018-10-17T00:01:34.721Z,60.46
2018-10-17T00:04:03.397Z,60.22
2018-10-17T00:06:32.075Z,60.54
2018-10-17T00:09:00.845Z,61.78
2018-10-17T00:11:29.496Z,62.27
2018-10-17T00:13:58.199Z,62.72
2018-10-17T00:16:26.827Z,63.13
2018-10-17T00:18:55.524Z,63.81
2018-10-17T00:21:24.185Z,63.37
2018-10-17T00:23:52.880Z,64.58
2018-10-17T00:26:21.571Z,63.48
2018-10-17T00:30:19.579Z,64.04
2018-10-17T00:32:48.300Z,64.76
2018-10-17T00:35:17.274Z,64.25
2018-10-17T00:37:45.941Z,64.70
2018-10-17T00:40:14.727Z,64.29
2018-10-17T00:42:43.429Z,64.55
2018-10-17T00:45:12.146Z,64.30
2018-10-17T00:47:41.386Z,64.58
2018-10-17T00:50:10.152Z,64.24
2018-10-17T00:52:38.832Z,63.82
2018-10-17T00:55:07.634Z,63.72
2018-10-17T00:57:36.288Z,63.17
2018-10-17T01:00:08.388Z,63.55
2018-10-17T01:02:37.165Z,64.52
2018-10-17T01:05:06.813Z,64.27
2018-10-17T01:07:35.466Z,64.34
2018-10-17T01:10:04.194Z,64.32
2018-10-17T01:12:32.904Z,64.73
2018-10-17T01:15:01.622Z,64.12
2018-10-17T01:17:30.321Z,64.33
2018-10-17T01:19:59.020Z,65.40
2018-10-17T01:22:27.665Z,65.28
2018-10-17T01:24:56.445Z,65.80
2018-10-17T01:27:25.070Z,66.32
2018-10-17T01:29:53.806Z,65.88
2018-10-17T01:32:22.561Z,66.58
2018-10-17T01:34:51.294Z,66.61
2018-10-17T01:37:19.976Z,66.24
2018-10-17T01:39:48.691Z,66.55
2018-10-17T01:42:17.405Z,67.17
2018-10-17T01:44:46.073Z,67.51
2018-10-17T01:47:14.977Z,67.25
2018-10-17T01:49:43.925Z,67.27
2018-10-17T01:52:12.671Z,67.52
2018-10-17T01:54:41.356Z,67.43
2018-10-17T01:57:10.025Z,67.80
2018-10-17T01:59:38.746Z,67.35
2018-10-17T02:02:07.463Z,67.93
2018-10-17T02:04:36.124Z,67.53
2018-10-17T02:07:04.937Z,67.37
2018-10-17T02:09:33.605Z,67.78
2018-10-17T02:12:02.273Z,67.49
2018-10-17T02:14:31.021Z,67.83
2018-10-17T02:16:59.729Z,67.65
2018-10-17T02:19:28.399Z,67.43
2018-10-17T02:21:57.152Z,67.43
2018-10-17T02:24:25.818Z,67.25
2018-10-17T02:26:54.537Z,66.90
2018-10-17T02:29:23.240Z,66.76
2018-10-17T02:31:51.923Z,66.94
2018-10-17T02:34:20.596Z,67.33
2018-10-17T02:36:49.325Z,67.41
2018-10-17T02:39:17.949Z,67.34
2018-10-17T02:41:46.599Z,67.43
2018-10-17T02:44:15.263Z,65.91
2018-10-17T02:46:43.980Z,66.05
2018-10-17T02:49:12.765Z,66.48
2018-10-17T02:51:41.412Z,65.71
2018-10-17T02:54:10.113Z,66.07
2018-10-17T02:56:38.818Z,66.25
2018-10-17T02:59:08.502Z,66.98
2018-10-17T03:01:37.198Z,66.80
2018-10-17T03:04:05.960Z,67.24
2018-10-17T03:06:34.659Z,67.48
2018-10-17T03:09:03.715Z,67.61
2018-10-17T03:11:32.466Z,68.32
2018-10-17T03:14:01.633Z,68.08
2018-10-17T03:16:30.308Z,68.53
2018-10-17T03:18:59.354Z,68.07
2018-10-17T03:21:27.967Z,68.10
2018-10-17T03:23:56.664Z,68.63
2018-10-17T03:26:25.403Z,68.84
2018-10-17T03:28:54.182Z,68.57
2018-10-17T03:31:22.905Z,68.91
2018-10-17T03:33:51.590Z,68.55
2018-10-17T03:36:20.294Z,69.18
2018-10-17T03:38:48.930Z,68.76
2018-10-17T03:41:17.617Z,68.54
2018-10-17T03:43:46.284Z,69.45
2018-10-17T03:46:21.143Z,69.45
2018-10-17T03:48:49.849Z,69.65
2018-10-17T03:51:18.684Z,69.48
2018-10-17T03:53:47.364Z,69.74
2018-10-17T03:56:15.978Z,69.27
2018-10-17T03:58:44.662Z,69.53
2018-10-17T04:01:13.469Z,69.43
2018-10-17T04:03:42.081Z,68.99
2018-10-17T04:06:10.768Z,70.12
2018-10-17T04:09:14.719Z,69.60
2018-10-17T04:11:43.437Z,69.19
2018-10-17T04:14:12.191Z,69.09
2018-10-17T04:16:40.982Z,69.15
2018-10-17T04:19:09.719Z,69.10
2018-10-17T04:21:38.338Z,69.25
2018-10-17T04:24:07.201Z,69.80
2018-10-17T04:26:35.971Z,69.84
2018-10-17T04:29:04.722Z,70.04
2018-10-17T04:31:33.497Z,70.18
2018-10-17T04:34:02.197Z,69.69
2018-10-17T04:36:30.884Z,69.41
2018-10-17T04:38:59.544Z,69.43
2018-10-17T04:41:28.211Z,68.92
2018-10-17T04:43:56.884Z,68.97
2018-10-17T04:46:25.581Z,68.87
2018-10-17T04:48:54.678Z,69.01
2018-10-17T04:51:23.390Z,68.92
2018-10-17T04:53:52.068Z,69.34
2018-10-17T04:56:20.823Z,69.39
2018-10-17T04:58:49.506Z,69.68
2018-10-17T05:01:18.247Z,69.20
2018-10-17T05:03:46.900Z,68.95
2018-10-17T05:06:16.691Z,69.18
2018-10-17T05:08:45.404Z,69.11
2018-10-17T05:11:14.324Z,69.16
2018-10-17T05:13:42.961Z,70.04
2018-10-17T05:16:11.636Z,69.66
2018-10-17T05:18:40.377Z,69.84
2018-10-17T05:21:09.113Z,69.61
2018-10-17T05:23:37.961Z,69.97
2018-10-17T05:26:06.905Z,70.66
2018-10-17T05:28:35.564Z,70.24
2018-10-17T05:31:04.375Z,69.99
2018-10-17T05:33:33.124Z,69.83
2018-10-17T05:36:01.840Z,69.44
2018-10-17T05:38:30.530Z,70.37
2018-10-17T05:40:59.247Z,69.77
2018-10-17T05:43:28.028Z,69.15
2018-10-17T05:45:56.749Z,69.57
2018-10-17T05:48:25.436Z,68.97
2018-10-17T05:50:55.179Z,69.21
2018-10-17T05:53:24.157Z,69.21
2018-10-17T05:55:52.905Z,69.25
2018-10-17T05:58:21.659Z,69.18
2018-10-17T06:00:50.348Z,68.93
2018-10-17T06:03:19.022Z,68.63
2018-10-17T06:05:47.735Z,68.21
2018-10-17T06:08:16.411Z,68.68
2018-10-17T06:10:45.138Z,68.59
2018-10-17T06:13:13.999Z,68.35
2018-10-17T06:15:42.687Z,67.32
2018-10-17T06:18:11.304Z,67.71
2018-10-17T06:20:40.160Z,67.27
2018-10-17T06:23:08.588Z,66.62
2018-10-17T06:25:37.267Z,67.14
2018-10-17T06:28:05.977Z,66.89
2018-10-17T06:30:34.845Z,66.25
2018-10-17T06:33:03.539Z,65.93
2018-10-17T06:35:32.275Z,65.40
2018-10-17T06:38:00.981Z,64.79
2018-10-17T06:40:29.619Z,65.27
2018-10-17T06:42:58.315Z,64.61
2018-10-17T06:45:27.027Z,63.88
2018-10-17T06:47:55.692Z,64.17
2018-10-17T06:50:24.369Z,63.96
2018-10-17T06:52:53.180Z,63.20
2018-10-17T06:55:21.984Z,63.44
2018-10-17T06:57:50.786Z,62.81
2018-10-17T07:00:23.762Z,61.60
2018-10-17T07:02:52.847Z,61.51
2018-10-17T07:05:21.855Z,61.82
2018-10-17T07:07:50.600Z,61.16
2018-10-17T07:10:19.481Z,60.51
2018-10-17T07:12:48.154Z,60.68
2018-10-17T07:15:16.880Z,60.60
2018-10-17T07:17:45.528Z,59.88
2018-10-17T07:20:14.217Z,59.70
2018-10-17T07:22:42.899Z,59.30
2018-10-17T07:25:11.690Z,59.21
2018-10-17T07:27:40.328Z,58.17
2018-10-17T07:30:10.056Z,57.78
2018-10-17T07:32:38.819Z,57.46
2018-10-17T07:35:08.699Z,57.06
2018-10-17T07:37:37.645Z,56.92
2018-10-17T07:40:07.234Z,56.48
2018-10-17T07:42:36.322Z,55.15
2018-10-17T07:45:05.470Z,55.12
2018-10-17T07:47:34.837Z,54.82
2018-10-17T07:50:03.765Z,54.34
2018-10-17T07:52:32.465Z,54.08
2018-10-17T07:55:06.246Z,53.40
2018-10-17T07:57:34.919Z,52.62
2018-10-17T08:00:07.544Z,52.68
2018-10-17T08:02:36.327Z,52.84
2018-10-17T08:05:05.101Z,52.25
2018-10-17T08:07:33.790Z,51.86
2018-10-17T08:10:02.541Z,51.77
2018-10-17T08:12:31.352Z,52.10
2018-10-17T08:15:00.949Z,51.66
2018-10-17T08:17:29.664Z,51.15
2018-10-17T08:19:58.445Z,50.79
2018-10-17T08:22:27.083Z,50.60
2018-10-17T08:24:55.921Z,50.23
2018-10-17T08:27:24.728Z,50.47
2018-10-17T08:29:53.415Z,49.51
2018-10-17T08:32:22.153Z,49.12
2018-10-17T08:34:50.885Z,48.82
2018-10-17T08:37:20.032Z,48.83
2018-10-17T08:39:48.387Z,48.81
2018-10-17T08:42:17.061Z,48.01
2018-10-17T08:44:45.806Z,47.49
2018-10-17T08:47:14.643Z,47.35
2018-10-17T08:49:43.461Z,47.14
2018-10-17T08:52:12.100Z,47.26
2018-10-17T08:54:40.840Z,46.39
2018-10-17T08:57:09.661Z,46.50
2018-10-17T09:04:27.901Z,46.05
2018-10-17T09:06:56.880Z,46.05
2018-10-17T09:09:25.656Z,45.05
2018-10-17T09:11:55.015Z,45.25
2018-10-17T09:15:09.113Z,43.97
2018-10-17T09:17:38.037Z,43.79
2018-10-17T09:20:08.322Z,44.05
2018-10-17T09:22:36.903Z,43.04
2018-10-17T09:25:06.025Z,43.11
2018-10-17T09:27:34.856Z,42.82
2018-10-17T09:30:07.178Z,41.41
2018-10-17T09:32:35.962Z,39.80
2018-10-17T09:35:06.177Z,38.97
2018-10-17T09:37:34.956Z,38.15
2018-10-17T09:40:03.856Z,36.65
2018-10-17T09:42:33.297Z,36.23
2018-10-17T09:45:02.211Z,34.92
2018-10-17T09:47:31.238Z,34.88
2018-10-17T09:50:00.148Z,34.30
2018-10-17T09:52:28.938Z,34.88
2018-10-17T09:54:57.759Z,34.18
2018-10-17T09:57:26.570Z,32.35
2018-10-17T09:59:55.492Z,31.58
2018-10-17T10:02:24.395Z,31.28
2018-10-17T10:04:53.154Z,31.18
2018-10-17T10:07:21.946Z,30.24
2018-10-17T10:09:50.680Z,29.90
2018-10-17T10:12:19.576Z,30.91
2018-10-17T10:14:48.426Z,30.88
2018-10-17T10:17:17.562Z,30.51
2018-10-17T10:19:46.346Z,29.94
2018-10-17T10:22:15.312Z,29.44
2018-10-17T10:24:44.223Z,27.84
2018-10-17T10:27:13.090Z,27.74
2018-10-17T10:29:41.997Z,27.55
2018-10-17T10:32:10.792Z,27.53
2018-10-17T10:34:39.633Z,27.11
2018-10-17T10:37:08.544Z,26.99
2018-10-17T10:39:37.361Z,26.86
2018-10-17T10:42:06.773Z,27.07
2018-10-17T10:44:35.570Z,25.46
2018-10-17T10:47:04.437Z,25.63
2018-10-17T10:49:33.287Z,25.16
2018-10-17T10:52:02.096Z,25.50
2018-10-17T10:54:30.904Z,25.42
2018-10-17T10:56:59.785Z,25.07
2018-10-17T10:59:28.645Z,25.99
2018-10-17T11:01:57.487Z,26.02
2018-10-17T11:04:26.306Z,26.55
2018-10-17T11:06:55.168Z,25.77
2018-10-17T11:09:28.635Z,25.50
2018-10-17T11:11:57.459Z,25.27
2018-10-17T11:14:26.473Z,25.60
2018-10-17T11:16:55.215Z,26.23
2018-10-17T11:19:24.009Z,25.27
2018-10-17T11:21:52.899Z,25.61
2018-10-17T11:24:21.701Z,25.55
2018-10-17T11:26:50.557Z,26.08
2018-10-17T11:29:19.487Z,25.28
2018-10-17T11:31:48.439Z,24.76
2018-10-17T11:34:18.554Z,24.83
2018-10-17T11:36:48.386Z,24.34
2018-10-17T11:39:17.329Z,24.53
2018-10-17T11:41:46.885Z,25.26
2018-10-17T11:44:17.245Z,26.10
2018-10-17T11:46:46.220Z,24.93
2018-10-17T11:49:15.002Z,24.75
2018-10-17T11:51:43.909Z,25.93
2018-10-17T11:54:12.805Z,23.98
2018-10-17T11:56:41.692Z,24.86
2018-10-17T11:59:10.599Z,23.92
2018-10-17T12:01:39.379Z,24.07
2018-10-17T12:04:08.521Z,23.86
2018-10-17T12:06:37.349Z,24.15
2018-10-17T12:09:08.094Z,23.00
2018-10-17T12:11:36.877Z,23.45
2018-10-17T12:14:05.936Z,23.76
2018-10-17T12:16:34.703Z,23.70
2018-10-17T12:19:04.120Z,23.38
2018-10-17T12:21:33.112Z,23.83
2018-10-17T12:24:02.036Z,24.12
2018-10-17T12:26:45.494Z,23.67
2018-10-17T12:29:14.318Z,24.19
2018-10-17T12:31:43.132Z,24.87
2018-10-17T12:34:12.015Z,24.32
2018-10-17T12:36:41.033Z,23.91
2018-10-17T12:39:11.942Z,24.39
2018-10-17T12:41:41.097Z,24.41
2018-10-17T12:44:09.769Z,23.50
2018-10-17T12:46:38.764Z,23.71
2018-10-17T12:49:07.632Z,23.24
2018-10-17T12:51:36.465Z,22.88
2018-10-17T12:54:05.596Z,23.91
2018-10-17T12:56:34.492Z,23.18
2018-10-17T12:59:03.479Z,23.17
2018-10-17T13:01:32.242Z,22.95
2018-10-17T13:04:01.090Z,22.23
2018-10-17T13:06:29.914Z,23.24
2018-10-17T13:08:58.726Z,23.88
2018-10-17T13:11:27.712Z,23.32
2018-10-17T13:13:56.574Z,23.43
2018-10-17T13:16:25.546Z,23.66
2018-10-17T13:18:54.404Z,23.13
2018-10-17T13:21:23.272Z,23.27
2018-10-17T13:23:52.138Z,24.01
2018-10-17T13:26:20.924Z,23.06
2018-10-17T13:28:49.953Z,22.98
2018-10-17T13:31:18.947Z,24.56
2018-10-17T13:33:47.837Z,24.08
2018-10-17T13:36:16.689Z,24.52
2018-10-17T13:38:45.703Z,24.92
2018-10-17T13:41:14.529Z,24.32
2018-10-17T13:43:43.266Z,24.98
2018-10-17T13:46:12.097Z,24.01
2018-10-17T13:48:40.962Z,25.35
2018-10-17T13:51:09.914Z,25.08
2018-10-17T13:53:38.751Z,25.11
2018-10-17T13:56:08.649Z,26.00
2018-10-17T13:58:37.534Z,25.21
2018-10-17T14:01:06.762Z,26.36
2018-10-17T14:03:35.511Z,25.77
2018-10-17T14:06:04.447Z,25.99
2018-10-17T14:08:33.684Z,26.38
2018-10-17T14:11:02.488Z,25.46
2018-10-17T14:13:31.404Z,25.14
2018-10-17T14:16:00.182Z,26.24
2018-10-17T14:18:29.507Z,26.18
2018-10-17T14:20:58.361Z,25.85
2018-10-17T14:23:27.225Z,25.85
2018-10-17T14:25:55.882Z,27.00
2018-10-17T14:28:24.579Z,26.46
2018-10-17T14:30:53.269Z,26.08
2018-10-17T14:33:22.037Z,25.05
2018-10-17T14:35:50.739Z,26.54
2018-10-17T14:38:19.501Z,25.85
2018-10-17T14:40:48.354Z,25.70
2018-10-17T14:43:17.510Z,26.14
2018-10-17T14:45:46.323Z,25.84
2018-10-17T14:48:15.065Z,26.33
2018-10-17T14:50:43.715Z,26.29
2018-10-17T14:53:12.520Z,27.47
2018-10-17T14:55:41.174Z,26.71
2018-10-17T14:58:09.842Z,26.23
2018-10-17T15:00:38.602Z,26.96
2018-10-17T15:03:07.359Z,27.20
2018-10-17T15:05:36.106Z,27.28
2018-10-17T15:08:04.957Z,27.39
2018-10-17T15:10:33.748Z,27.69
2018-10-17T15:13:02.385Z,27.48
2018-10-17T15:15:31.224Z,27.42
2018-10-17T15:18:00.256Z,28.98
2018-10-17T15:20:29.603Z,29.68
2018-10-17T15:22:58.330Z,30.80
2018-10-17T15:25:27.041Z,30.35
2018-10-17T15:27:55.813Z,31.66
2018-10-17T15:30:24.555Z,32.07
2018-10-17T15:32:53.310Z,32.37
2018-10-17T15:35:22.027Z,33.24
2018-10-17T15:37:50.834Z,34.02
2018-10-17T15:40:19.590Z,33.61
2018-10-17T15:42:48.349Z,33.70
2018-10-17T15:45:17.107Z,34.63
2018-10-17T15:47:45.953Z,34.01
2018-10-17T15:50:14.713Z,34.65
2018-10-17T15:52:44.302Z,34.16
2018-10-17T15:55:13.155Z,34.52
2018-10-17T15:57:41.976Z,35.09
2018-10-17T16:00:11.692Z,35.20
2018-10-17T16:02:40.471Z,35.17
2018-10-17T16:05:10.892Z,35.87
2018-10-17T16:07:39.665Z,35.59
2018-10-17T16:10:08.680Z,36.64
2018-10-17T16:12:37.967Z,35.90
2018-10-17T16:15:07.930Z,36.81
2018-10-17T16:17:36.671Z,36.75
2018-10-17T16:20:06.748Z,37.04
2018-10-17T16:22:35.507Z,37.56
2018-10-17T16:25:04.444Z,37.55
2018-10-17T16:27:34.108Z,37.56
2018-10-17T16:30:06.530Z,37.50
2018-10-17T16:32:35.243Z,37.74
2018-10-17T16:35:04.043Z,38.29
2018-10-17T16:37:32.824Z,38.09
2018-10-17T16:40:01.588Z,38.31
2018-10-17T16:42:30.314Z,38.31
2018-10-17T16:44:59.029Z,38.26
2018-10-17T16:47:28.048Z,38.16
2018-10-17T16:49:56.722Z,38.22
2018-10-17T16:52:25.413Z,38.46
2018-10-17T16:54:54.071Z,38.57
2018-10-17T16:57:22.745Z,38.40
2018-10-17T16:59:51.489Z,38.81
2018-10-17T17:02:20.226Z,38.88
2018-10-17T17:04:48.904Z,39.37
2018-10-17T17:07:17.580Z,39.11
2018-10-17T17:09:46.440Z,39.32
2018-10-17T17:12:15.178Z,39.04
2018-10-17T17:14:43.978Z,39.19
2018-10-17T17:17:12.815Z,39.55
2018-10-17T17:19:41.548Z,39.65
2018-10-17T17:22:10.254Z,39.85
2018-10-17T17:24:58.063Z,39.87
2018-10-17T17:27:26.842Z,39.59
2018-10-17T17:29:55.614Z,39.69
2018-10-17T17:32:24.227Z,39.30
2018-10-17T17:34:52.952Z,39.61
2018-10-17T17:37:21.623Z,39.97
2018-10-17T17:39:50.383Z,40.32
2018-10-17T17:42:19.251Z,40.01
2018-10-17T17:44:47.920Z,40.04
2018-10-17T17:47:16.645Z,40.58
2018-10-17T17:49:45.326Z,40.05
2018-10-17T17:52:14.038Z,40.78
2018-10-17T17:54:43.616Z,40.80
2018-10-17T17:57:12.362Z,40.46
2018-10-17T17:59:41.196Z,40.26
2018-10-17T18:02:09.985Z,40.46
2018-10-17T18:04:38.726Z,40.44
2018-10-17T18:07:07.521Z,40.96
2018-10-17T18:09:36.298Z,41.74
2018-10-17T18:12:05.437Z,41.24
2018-10-17T18:14:34.130Z,41.65
2018-10-17T18:17:02.984Z,41.89
2018-10-17T18:19:31.779Z,42.29
2018-10-17T18:22:00.565Z,42.07
2018-10-17T18:24:29.313Z,42.55
2018-10-17T18:26:57.995Z,42.66
2018-10-17T18:29:26.857Z,43.12
2018-10-17T18:31:55.659Z,43.66
2018-10-17T18:34:24.352Z,43.15
2018-10-17T18:36:53.288Z,43.53
2018-10-17T18:39:21.972Z,43.66
2018-10-17T18:41:50.604Z,43.27
2018-10-17T18:44:19.291Z,43.59
2018-10-17T18:46:47.954Z,43.83
2018-10-17T18:49:16.706Z,44.46
2018-10-17T18:51:45.377Z,43.34
2018-10-17T18:54:14.101Z,44.00
2018-10-17T18:56:42.729Z,44.31
2018-10-17T18:59:11.980Z,44.41
2018-10-17T19:01:40.735Z,44.78
2018-10-17T19:04:09.344Z,45.05
2018-10-17T19:06:38.056Z,44.59
2018-10-17T19:09:10.232Z,44.58
2018-10-17T19:11:38.900Z,44.90
2018-10-17T19:14:08.020Z,45.52
2018-10-17T19:16:37.318Z,44.54
2018-10-17T19:19:08.086Z,45.04
2018-10-17T19:21:37.121Z,45.51
2018-10-17T19:24:06.416Z,44.94
2018-10-17T19:26:35.102Z,45.31
2018-10-17T19:29:03.801Z,44.81
2018-10-17T19:31:32.492Z,44.85
2018-10-17T19:34:01.227Z,45.14
2018-10-17T19:36:30.019Z,45.10
2018-10-17T19:38:58.751Z,44.99
2018-10-17T19:41:27.371Z,45.47
2018-10-17T19:43:56.176Z,45.18
2018-10-17T19:46:24.846Z,45.93
2018-10-17T19:48:53.524Z,45.54
2018-10-17T19:51:22.273Z,45.79
2018-10-17T19:53:51.401Z,45.71
2018-10-17T19:56:20.053Z,45.81
2018-10-17T19:58:48.759Z,45.84
2018-10-17T20:01:18.094Z,46.05
2018-10-17T20:03:46.720Z,46.26
2018-10-17T20:06:16.551Z,46.23
2018-10-17T20:08:45.226Z,46.50
2018-10-17T20:11:13.965Z,46.17
2018-10-17T20:13:42.683Z,46.35
2018-10-17T20:16:11.458Z,45.96
2018-10-17T20:18:40.117Z,46.20
2018-10-17T20:21:08.921Z,46.43
2018-10-17T20:23:37.581Z,46.55
2018-10-17T20:26:06.454Z,46.51
2018-10-17T20:28:35.359Z,46.88
2018-10-17T20:31:04.069Z,46.52
2018-10-17T20:33:32.734Z,46.83
2018-10-17T20:36:01.481Z,47.09
2018-10-17T20:38:30.202Z,46.62
2018-10-17T20:40:58.940Z,46.36
2018-10-17T20:43:28.050Z,46.99
2018-10-17T20:45:56.706Z,46.53
2018-10-17T20:48:25.449Z,46.85
2018-10-17T20:50:54.302Z,46.57
2018-10-17T20:53:23.000Z,46.35
2018-10-17T20:55:51.812Z,46.45
2018-10-17T20:58:20.526Z,46.20
2018-10-17T21:00:49.329Z,46.35
2018-10-17T21:03:18.024Z,46.12
2018-10-17T21:05:46.693Z,46.36
2018-10-17T21:08:15.525Z,46.48
2018-10-17T21:10:44.134Z,46.32
2018-10-17T21:13:12.838Z,46.06
2018-10-17T21:15:41.662Z,46.28
2018-10-17T21:18:10.469Z,46.60
2018-10-17T21:20:39.203Z,46.83
2018-10-17T21:23:07.864Z,46.78
2018-10-17T21:25:36.525Z,46.53
2018-10-17T21:28:05.469Z,46.54
2018-10-17T21:30:34.191Z,47.52
2018-10-17T21:33:02.785Z,46.76
2018-10-17T21:35:31.618Z,47.32
2018-10-17T21:38:00.294Z,47.82
2018-10-17T21:40:28.979Z,47.40
2018-10-17T21:42:57.698Z,47.26
2018-10-17T21:45:26.478Z,46.89
2018-10-17T21:47:55.249Z,46.90
2018-10-17T21:50:23.947Z,47.24
2018-10-17T21:52:52.631Z,47.51
2018-10-17T21:55:21.275Z,47.19
2018-10-17T21:57:50.004Z,47.60
2018-10-17T22:00:18.784Z,47.60
2018-10-17T22:02:47.492Z,47.63
2018-10-17T22:05:16.159Z,48.17
2018-10-17T22:07:44.885Z,48.30
2018-10-17T22:10:13.553Z,48.12
2018-10-17T22:12:42.206Z,48.79
2018-10-17T22:15:11.466Z,49.39
2018-10-17T22:17:40.103Z,48.81
2018-10-17T22:20:08.783Z,49.35
2018-10-17T22:22:37.444Z,49.42
2018-10-17T22:25:07.804Z,49.75
2018-10-17T22:27:36.488Z,49.04
2018-10-17T22:30:08.937Z,49.90
2018-10-17T22:32:37.567Z,50.50
2018-10-17T22:35:06.605Z,50.08
2018-10-17T22:37:35.369Z,50.21
2018-10-17T22:40:04.076Z,50.84
2018-10-17T22:42:33.706Z,50.87
2018-10-17T22:45:02.407Z,50.74
2018-10-17T22:47:31.071Z,50.96
2018-10-17T22:49:59.834Z,50.97
2018-10-17T22:52:28.509Z,50.74
2018-10-17T22:54:57.195Z,51.05
2018-10-17T22:57:25.834Z,51.00
2018-10-17T22:59:54.497Z,51.25
2018-10-17T23:02:23.085Z,51.74
2018-10-17T23:04:51.802Z,51.23
2018-10-17T23:07:20.543Z,51.71
2018-10-17T23:09:49.184Z,51.60
2018-10-17T23:12:17.861Z,51.61
2018-10-17T23:14:46.515Z,51.60
2018-10-17T23:17:15.188Z,51.67
2018-10-17T23:19:43.813Z,51.71
2018-10-17T23:22:12.423Z,51.50
2018-10-17T23:24:41.104Z,52.66
2018-10-17T23:27:09.756Z,51.68
2018-10-17T23:29:38.419Z,51.40
2018-10-17T23:32:07.184Z,51.67
2018-10-17T23:34:35.801Z,51.77
2018-10-17T23:37:04.486Z,51.73
2018-10-17T23:39:33.051Z,52.08
2018-10-17T23:42:01.788Z,51.96
2018-10-17T23:44:30.444Z,52.18
2018-10-17T23:53:45.543Z,53.21
2018-10-17T23:56:14.268Z,53.10
2018-10-17T23:58:42.904Z,53.19
